National Weather Service United States Department of Commerce
Customize Your Weather.gov

LOADING...

********************** NWR roundup for FEB 02 at 20 SST ***********************

PAGO PAGO AIRPORT 030350Z 08011KT 12SM SCT022 BKN040 OVC100 30/26 A2975 RMK
FALEOLO AIRPORT   030700Z 08006KT 9999 FEW020 BKN042 OVC130 25/25 Q1009
NANDI             030700Z 00000KT 9999 4900NE -SHRA FEW025TCU SCT047 BKN110 
AUCKLAND          030700Z AUTO 03011KT 9999 BKN010/// OVC014/// 22/21 Q1018
SIDNEY            030700Z AUTO 12013KT 9999 // NCD 25/11 Q0996
HONOLULU AIRPORT  030653Z 04006KT 10SM FEW024 FEW040 24/21 A3003 RMK AO2 SLP169